Accueil
METAR-TAF:

METAR-TAF

Aéroports :

Nawabshah, Pakistan

latitude: 26-15N, longitude: 068-22E, altitude: 37 m

Observation

Le bulletin a été fait il y a 1 heure et 8 minutes, à 04:00 UTC
Vent 4 kt de nord
Température 13°C
Humidité 72%
Pression 1021 hPa
Visibilité: 2000 m
Quelques nuages à une hauteur de 20000 ft
fumée

METAR: OPNH 080400Z 36004KT 2000 FU FEW200 13/08 Q1021 BECMG 2500 FU

Heure: 10:08 (05:08 UTC)

Prévision

Le bulletin a été fait il y a 7 heures et 38 minutes, à 21:30 UTC
Prévision valable du 08 à 00 UTC au 09 à 06 UTC
Vent 10 kt de nord-est
Visibilité: 4000 m
fumée
Temporairement
du 08 à 00 UTC au 08 à 04 UTC
Vent kt de nord
Visibilité: 1000 m
brume
Temporairement
du 09 à 00 UTC au 09 à 04 UTC
Vent kt de nord
Visibilité: 1000 m
brume

TAF: OPNH 072130Z 0800/0906 04010KT 4000 FU NSC TEMPO 0800/0804 00000KT 1000 BR NSC TEMPO 0900/0904 00000KT 1000 BR NSC

Observations et prévisions météorologiques de plus de 4000 aéroports (messages METAR et TAF).

Les stations disponibles sont représentées par des disques jaunes et rouges sur la carte.

Passer la souris dessus pour voir le nom de la station.

Cliquer dessus pour voir les observations et prévisions météorologiques.

Pour changer de carte: cliquez sur les boutons verts avec une croix noire pour zoomer, sur le bouton vert avec un tiret pour effectuer un zoom arrière, ou sur les flèches vertes pour les cartes adjacentes.


METAR-TAF: